Time,TemperatureF,DewpointF,PressureIn,WindDirection,WindDirectionDegrees,WindSpeedMPH,WindSpeedGustMPH,Humidity,HourlyPrecipIn,Conditions,Clouds,dailyrainin,SoftwareType,DateUTC
2013-07-24 00:01:00,69.0,66.0,29.77,WSW,243,0.0,0.0,91,0.01,,,0.45,,2013-07-24 06:01:00,
2013-07-24 00:11:00,69.0,67.0,29.76,WSW,243,0.0,0.0,92,0.00,,,0.45,,2013-07-24 06:11:00,
2013-07-24 00:24:00,69.0,67.0,29.77,SE,134,0.0,1.0,94,0.00,,,0.45,,2013-07-24 06:24:00,
2013-07-24 00:34:00,69.0,67.0,29.77,SE,134,0.0,1.0,94,0.00,,,0.45,,2013-07-24 06:34:00,
2013-07-24 00:43:00,69.0,67.0,29.77,SE,134,0.0,0.0,93,0.00,,,0.45,,2013-07-24 06:43:00,
2013-07-24 00:53:00,69.0,67.0,29.77,SE,134,0.0,0.0,94,0.00,,,0.45,,2013-07-24 06:53:00,
2013-07-24 01:02:00,69.0,67.0,29.77,SE,134,0.0,0.0,94,0.00,,,0.45,,2013-07-24 07:02:00,
2013-07-24 01:12:00,69.0,67.0,29.76,SE,134,0.0,0.0,94,0.00,,,0.45,,2013-07-24 07:12:00,
2013-07-24 01:22:00,69.0,67.0,29.77,SE,134,0.0,0.0,94,0.00,,,0.45,,2013-07-24 07:22:00,
2013-07-24 01:32:00,69.0,67.0,29.77,SE,134,0.0,0.0,94,0.00,,,0.45,,2013-07-24 07:32:00,
2013-07-24 01:43:00,69.0,67.0,29.77,SE,134,0.0,0.0,94,0.00,,,0.45,,2013-07-24 07:43:00,
2013-07-24 01:52:00,69.0,68.0,29.77,SE,134,0.0,0.0,95,0.00,,,0.45,,2013-07-24 07:52:00,
2013-07-24 02:02:00,69.0,68.0,29.77,SE,134,0.0,0.0,95,0.00,,,0.45,,2013-07-24 08:02:00,
2013-07-24 02:12:00,69.0,68.0,29.77,SE,134,0.0,1.0,95,0.00,,,0.45,,2013-07-24 08:12:00,
2013-07-24 02:22:00,69.0,68.0,29.77,SE,134,0.0,0.0,95,0.00,,,0.45,,2013-07-24 08:22:00,
2013-07-24 02:32:00,69.0,68.0,29.77,SE,134,0.0,0.0,95,0.00,,,0.45,,2013-07-24 08:32:00,
2013-07-24 02:42:00,69.0,68.0,29.77,SE,134,0.0,0.0,95,0.00,,,0.45,,2013-07-24 08:42:00,
2013-07-24 02:52:00,69.0,68.0,29.76,SE,134,0.0,0.0,95,0.00,,,0.45,,2013-07-24 08:52:00,
2013-07-24 03:02:00,69.0,68.0,29.76,SE,134,0.0,0.0,95,0.00,,,0.45,,2013-07-24 09:02:00,
2013-07-24 03:12:00,69.0,68.0,29.76,SE,134,0.0,0.0,95,0.00,,,0.45,,2013-07-24 09:12:00,
2013-07-24 03:22:00,69.0,68.0,29.76,SE,134,0.0,0.0,95,0.00,,,0.45,,2013-07-24 09:22:00,
2013-07-24 03:32:00,69.0,68.0,29.76,SE,134,0.0,0.0,95,0.00,,,0.45,,2013-07-24 09:32:00,
2013-07-24 03:43:00,69.0,68.0,29.75,SE,134,0.0,0.0,95,0.00,,,0.45,,2013-07-24 09:43:00,
2013-07-24 03:53:00,68.0,67.0,29.75,SE,134,0.0,0.0,95,0.00,,,0.45,,2013-07-24 09:53:00,
2013-07-24 04:02:00,68.0,67.0,29.75,SE,134,0.0,0.0,95,0.00,,,0.45,,2013-07-24 10:02:00,
2013-07-24 04:12:00,68.0,67.0,29.75,SE,134,0.0,0.0,95,0.00,,,0.45,,2013-07-24 10:12:00,
2013-07-24 04:22:00,68.0,67.0,29.75,SE,134,0.0,0.0,95,0.00,,,0.45,,2013-07-24 10:22:00,
2013-07-24 04:33:00,68.0,67.0,29.75,SE,134,0.0,0.0,95,0.00,,,0.45,,2013-07-24 10:33:00,
2013-07-24 04:43:00,68.0,67.0,29.74,SE,134,0.0,0.0,95,0.00,,,0.45,,2013-07-24 10:43:00,
2013-07-24 04:53:00,68.0,67.0,29.74,SE,134,0.0,0.0,96,0.00,,,0.45,,2013-07-24 10:53:00,
2013-07-24 05:02:00,68.0,67.0,29.74,SE,134,0.0,0.0,96,0.00,,,0.45,,2013-07-24 11:02:00,
2013-07-24 05:12:00,68.0,67.0,29.75,SE,134,0.0,0.0,96,0.00,,,0.45,,2013-07-24 11:12:00,
2013-07-24 05:22:00,68.0,67.0,29.75,SE,134,0.0,0.0,96,0.00,,,0.45,,2013-07-24 11:22:00,
2013-07-24 05:32:00,68.0,67.0,29.75,SE,134,0.0,0.0,96,0.00,,,0.45,,2013-07-24 11:32:00,
2013-07-24 05:43:00,68.0,67.0,29.75,SE,134,0.0,0.0,96,0.00,,,0.45,,2013-07-24 11:43:00,
2013-07-24 05:52:00,68.0,67.0,29.75,SE,134,0.0,0.0,96,0.00,,,0.45,,2013-07-24 11:52:00,
2013-07-24 06:02:00,68.0,67.0,29.75,SE,134,0.0,0.0,96,0.00,,,0.45,,2013-07-24 12:02:00,
2013-07-24 06:12:00,68.0,67.0,29.75,SE,134,0.0,0.0,96,0.00,,,0.45,,2013-07-24 12:12:00,
2013-07-24 06:22:00,68.0,67.0,29.76,SE,134,0.0,0.0,96,0.00,,,0.45,,2013-07-24 12:22:00,
2013-07-24 06:32:00,68.0,67.0,29.76,SE,134,0.0,0.0,96,0.00,,,0.45,,2013-07-24 12:32:00,
2013-07-24 06:42:00,68.0,67.0,29.76,SSE,165,0.0,1.0,96,0.00,,,0.45,,2013-07-24 12:42:00,
2013-07-24 06:52:00,68.0,67.0,29.77,SSE,165,0.0,0.0,96,0.00,,,0.45,,2013-07-24 12:52:00,
2013-07-24 07:02:00,68.0,67.0,29.77,SSE,165,0.0,0.0,96,0.00,,,0.45,,2013-07-24 13:02:00,
2013-07-24 07:12:00,68.0,67.0,29.77,South,173,0.0,0.0,96,0.00,,,0.45,,2013-07-24 13:12:00,
2013-07-24 07:22:00,68.0,67.0,29.78,SSE,155,0.0,3.0,96,0.00,,,0.45,,2013-07-24 13:22:00,
2013-07-24 07:32:00,68.0,67.0,29.78,SSE,155,0.0,3.0,96,0.00,,,0.45,,2013-07-24 13:32:00,
2013-07-24 07:43:00,69.0,68.0,29.78,SSE,155,0.0,0.0,96,0.00,,,0.45,,2013-07-24 13:43:00,
2013-07-24 07:53:00,70.0,68.0,29.78,SSW,212,0.0,2.0,95,0.00,,,0.45,,2013-07-24 13:53:00,
2013-07-24 08:02:00,70.0,68.0,29.78,SSW,212,0.0,2.0,95,0.00,,,0.45,,2013-07-24 14:02:00,
2013-07-24 08:12:00,70.0,68.0,29.79,SSE,162,0.0,1.0,92,0.00,,,0.45,,2013-07-24 14:12:00,
2013-07-24 08:22:00,72.0,69.0,29.79,SSW,212,0.0,2.0,90,0.00,,,0.45,,2013-07-24 14:22:00,
2013-07-24 08:32:00,72.0,69.0,29.79,SSW,212,0.0,2.0,90,0.00,,,0.45,,2013-07-24 14:32:00,
2013-07-24 08:43:00,72.0,68.0,29.79,SSW,197,0.0,1.0,88,0.00,,,0.45,,2013-07-24 14:43:00,
2013-07-24 08:55:00,72.0,68.0,29.79,SSW,197,0.0,0.0,88,0.00,,,0.45,,2013-07-24 14:55:00,
2013-07-24 09:02:00,72.0,68.0,29.79,SSW,197,0.0,0.0,88,0.00,,,0.45,,2013-07-24 15:02:00,
2013-07-24 09:12:00,73.0,68.0,29.79,SSW,197,0.0,0.0,84,0.00,,,0.45,,2013-07-24 15:12:00,
2013-07-24 09:22:00,74.0,67.0,29.79,South,191,0.0,1.0,80,0.00,,,0.45,,2013-07-24 15:22:00,
2013-07-24 09:32:00,74.0,67.0,29.79,South,191,0.0,1.0,80,0.00,,,0.45,,2013-07-24 15:32:00,
2013-07-24 09:43:00,76.0,68.0,29.79,South,169,0.0,1.0,77,0.00,,,0.45,,2013-07-24 15:43:00,
2013-07-24 09:52:00,77.0,68.0,29.80,SSE,166,0.0,3.0,75,0.00,,,0.45,,2013-07-24 15:52:00,
2013-07-24 10:02:00,77.0,68.0,29.80,SSE,166,0.0,3.0,75,0.00,,,0.45,,2013-07-24 16:02:00,
2013-07-24 10:12:00,78.0,68.0,29.80,ESE,111,0.0,2.0,72,0.00,,,0.45,,2013-07-24 16:12:00,
2013-07-24 10:22:00,79.0,68.0,29.80,ESE,108,0.0,3.0,69,0.00,,,0.45,,2013-07-24 16:22:00,
2013-07-24 10:32:00,79.0,68.0,29.80,ESE,108,0.0,3.0,69,0.00,,,0.45,,2013-07-24 16:32:00,
2013-07-24 10:43:00,79.0,67.0,29.80,ENE,57,0.0,2.0,67,0.00,,,0.45,,2013-07-24 16:43:00,
2013-07-24 10:53:00,81.0,68.0,29.80,NW,321,0.0,2.0,64,0.00,,,0.45,,2013-07-24 16:53:00,
2013-07-24 11:02:00,81.0,68.0,29.80,NW,321,0.0,2.0,64,0.00,,,0.45,,2013-07-24 17:02:00,
2013-07-24 11:12:00,82.0,68.0,29.80,WSW,239,0.0,4.0,62,0.00,,,0.45,,2013-07-24 17:12:00,
2013-07-24 11:22:00,83.0,68.0,29.80,SSE,153,0.0,6.0,60,0.00,,,0.45,,2013-07-24 17:22:00,
2013-07-24 11:33:00,83.0,68.0,29.80,SSE,153,0.0,6.0,60,0.00,,,0.45,,2013-07-24 17:33:00,
2013-07-24 11:43:00,84.0,69.0,29.80,West,271,1.0,2.0,61,0.00,,,0.45,,2013-07-24 17:43:00,
2013-07-24 11:53:00,85.0,65.0,29.80,East,96,0.0,3.0,52,0.00,,,0.45,,2013-07-24 17:53:00,
2013-07-24 12:02:00,85.0,65.0,29.80,East,96,0.0,3.0,52,0.00,,,0.45,,2013-07-24 18:02:00,
2013-07-24 12:12:00,86.0,70.0,29.80,SSE,158,0.0,3.0,59,0.00,,,0.45,,2013-07-24 18:12:00,
2013-07-24 12:22:00,87.0,65.0,29.79,West,276,0.0,1.0,49,0.00,,,0.45,,2013-07-24 18:22:00,
2013-07-24 12:33:00,87.0,65.0,29.79,West,276,0.0,1.0,49,0.00,,,0.45,,2013-07-24 18:33:00,
2013-07-24 13:22:00,89.0,68.0,29.77,SW,231,0.0,7.0,50,0.00,,,0.45,,2013-07-24 19:22:00,
2013-07-24 13:32:00,89.0,68.0,29.77,SW,231,0.0,7.0,50,0.00,,,0.45,,2013-07-24 19:32:00,
2013-07-24 13:43:00,89.0,66.0,29.76,SSW,207,1.0,5.0,47,0.00,,,0.45,,2013-07-24 19:43:00,
2013-07-24 13:53:00,90.0,68.0,29.75,SSW,202,1.0,5.0,48,0.00,,,0.45,,2013-07-24 19:53:00,
2013-07-24 14:02:00,90.0,68.0,29.75,SSW,202,1.0,5.0,48,0.00,,,0.45,,2013-07-24 20:02:00,
2013-07-24 14:13:00,90.0,64.0,29.74,SSW,207,2.0,9.0,42,0.00,,,0.45,,2013-07-24 20:13:00,
2013-07-24 14:22:00,90.0,66.0,29.73,SE,135,2.0,7.0,45,0.00,,,0.45,,2013-07-24 20:22:00,
2013-07-24 14:32:00,90.0,66.0,29.73,SE,135,2.0,7.0,45,0.00,,,0.45,,2013-07-24 20:32:00,
2013-07-24 14:42:00,90.0,64.0,29.72,SE,127,2.0,5.0,43,0.00,,,0.45,,2013-07-24 20:42:00,
2013-07-24 14:52:00,91.0,65.0,29.71,SE,141,2.0,6.0,42,0.00,,,0.45,,2013-07-24 20:52:00,
2013-07-24 15:02:00,91.0,65.0,29.71,SE,141,2.0,6.0,42,0.00,,,0.45,,2013-07-24 21:02:00,
2013-07-24 15:12:00,91.0,64.0,29.71,SE,141,1.0,5.0,41,0.00,,,0.45,,2013-07-24 21:12:00,
2013-07-24 15:22:00,91.0,65.0,29.70,ESE,105,1.0,3.0,43,0.00,,,0.45,,2013-07-24 21:22:00,
2013-07-24 15:32:00,91.0,65.0,29.70,ESE,105,1.0,3.0,43,0.00,,,0.45,,2013-07-24 21:32:00,
2013-07-24 15:43:00,91.0,65.0,29.70,SE,138,0.0,5.0,43,0.00,,,0.45,,2013-07-24 21:43:00,
2013-07-24 15:52:00,92.0,62.0,29.69,SW,219,1.0,5.0,37,0.00,,,0.45,,2013-07-24 21:52:00,
2013-07-24 16:02:00,92.0,62.0,29.69,SW,219,1.0,5.0,37,0.00,,,0.45,,2013-07-24 22:02:00,
2013-07-24 16:12:00,92.0,62.0,29.69,WSW,240,2.0,6.0,37,0.00,,,0.45,,2013-07-24 22:12:00,
2013-07-24 16:22:00,93.0,66.0,29.70,SW,225,1.0,5.0,42,0.00,,,0.45,,2013-07-24 22:22:00,
2013-07-24 16:32:00,93.0,66.0,29.70,SW,225,1.0,5.0,42,0.00,,,0.45,,2013-07-24 22:32:00,
2013-07-24 16:43:00,92.0,64.0,29.70,SSE,167,1.0,4.0,40,0.00,,,0.45,,2013-07-24 22:43:00,
2013-07-24 16:53:00,92.0,62.0,29.70,SW,230,0.0,2.0,37,0.00,,,0.45,,2013-07-24 22:53:00,
2013-07-24 17:02:00,92.0,62.0,29.70,SW,230,0.0,2.0,37,0.00,,,0.45,,2013-07-24 23:02:00,
2013-07-24 17:12:00,92.0,63.0,29.69,WSW,245,0.0,5.0,38,0.00,,,0.45,,2013-07-24 23:12:00,
2013-07-24 17:22:00,90.0,64.0,29.70,SW,219,0.0,1.0,42,0.00,,,0.45,,2013-07-24 23:22:00,
2013-07-24 17:32:00,90.0,64.0,29.70,SW,219,0.0,1.0,42,0.00,,,0.45,,2013-07-24 23:32:00,
2013-07-24 17:43:00,91.0,66.0,29.69,West,280,0.0,4.0,44,0.00,,,0.45,,2013-07-24 23:43:00,
2013-07-24 17:52:00,91.0,63.0,29.69,SW,214,0.0,1.0,39,0.00,,,0.45,,2013-07-24 23:52:00,
2013-07-24 18:02:00,91.0,63.0,29.69,SW,214,0.0,1.0,39,0.00,,,0.45,,2013-07-25 00:02:00,
2013-07-24 18:12:00,90.0,66.0,29.68,South,186,0.0,4.0,45,0.00,,,0.45,,2013-07-25 00:12:00,
2013-07-24 18:22:00,89.0,64.0,29.68,South,173,0.0,2.0,44,0.00,,,0.45,,2013-07-25 00:22:00,
2013-07-24 18:33:00,89.0,64.0,29.68,South,173,0.0,2.0,44,0.00,,,0.45,,2013-07-25 00:33:00,
2013-07-24 18:43:00,88.0,68.0,29.68,SW,218,0.0,1.0,51,0.00,,,0.45,,2013-07-25 00:43:00,
2013-07-24 18:52:00,86.0,66.0,29.68,SW,218,0.0,0.0,52,0.00,,,0.45,,2013-07-25 00:52:00,
2013-07-24 19:02:00,86.0,66.0,29.68,SW,218,0.0,0.0,52,0.00,,,0.45,,2013-07-25 01:02:00,
2013-07-24 19:12:00,85.0,68.0,29.68,SW,218,0.0,0.0,57,0.00,,,0.45,,2013-07-25 01:12:00,
2013-07-24 19:22:00,84.0,67.0,29.70,SW,218,0.0,0.0,57,0.00,,,0.45,,2013-07-25 01:22:00,
2013-07-24 19:32:00,84.0,67.0,29.70,SW,218,0.0,0.0,57,0.00,,,0.45,,2013-07-25 01:32:00,
2013-07-24 20:02:00,83.0,67.0,29.71,SW,218,0.0,0.0,58,0.00,,,0.09,,2013-07-25 02:02:00,
2013-07-24 21:14:00,81.0,63.0,29.73,NNE,33,0.0,8.0,54,0.00,,,0.04,,2013-07-25 03:14:00,
2013-07-24 21:24:00,80.0,62.0,29.75,North,6,2.0,8.0,55,0.00,,,0.04,,2013-07-25 03:24:00,
2013-07-24 21:44:00,80.0,63.0,29.77,ENE,63,3.0,10.0,56,0.00,,,0.03,,2013-07-25 03:44:00,
2013-07-24 21:52:00,76.0,65.0,29.79,NE,46,4.0,11.0,69,0.02,,,0.05,,2013-07-25 03:52:00,
2013-07-24 22:02:00,76.0,65.0,29.79,NE,46,4.0,11.0,69,0.02,,,0.05,,2013-07-25 04:02:00,
2013-07-24 22:12:00,69.0,65.0,29.80,WNW,282,0.0,9.0,86,0.46,,,0.49,,2013-07-25 04:12:00,
2013-07-24 22:22:00,67.0,64.0,29.82,NW,308,0.0,5.0,89,0.47,,,0.50,,2013-07-25 04:22:00,
2013-07-24 22:32:00,67.0,64.0,29.82,NW,308,0.0,5.0,89,0.47,,,0.50,,2013-07-25 04:32:00,
2013-07-24 22:43:00,67.0,65.0,29.85,West,274,0.0,3.0,92,0.47,,,0.49,,2013-07-25 04:43:00,
2013-07-24 22:53:00,68.0,66.0,29.88,West,274,0.0,0.0,92,0.44,,,0.50,,2013-07-25 04:53:00,
2013-07-24 23:02:00,68.0,66.0,29.88,West,274,0.0,0.0,92,0.44,,,0.50,,2013-07-25 05:02:00,
2013-07-24 23:12:00,68.0,66.0,29.85,East,84,0.0,4.0,92,0.09,,,0.57,,2013-07-25 05:12:00,
2013-07-24 23:22:00,68.0,66.0,29.87,SSE,159,0.0,4.0,93,0.13,,,0.62,,2013-07-25 05:22:00,
2013-07-24 23:32:00,68.0,66.0,29.87,SSE,159,0.0,4.0,93,0.13,,,0.62,,2013-07-25 05:32:00,
2013-07-24 23:43:00,68.0,66.0,29.88,NE,34,0.0,1.0,93,0.14,,,0.61,,2013-07-25 05:43:00,
2013-07-24 23:52:00,68.0,66.0,29.88,North,354,0.0,2.0,94,0.15,,,0.63,,2013-07-25 05:52:00,